Baileys Prairie, Texas
Current Conditions -  °F | °C
As of 7:53 AM on Monday 24 Nov 2014 (Local Time) from KLBX Reporting Station
Clear Clear  
Wind Chill: 51°   Ceiling: Unl
Heat Index: 51°   Visibility: 10mi
Dew Point: 42°   Wind: 10mph
Humidity: 71%   Direction: 360°N
Pressure: 29.99"   Gusts: NA
Location:  29.1898°N, 95.4754°W
Report Text: KLBX 241353Z AUTO 36009KT 10SM CLR 11/06 A2999 RMK AO2 SLP154 T01060056
Loading
Personal Weather Stations






























Interactive Weather Map New forecast layout! Learn more

10-Day Weather Forecast

Advertisements
Track Severe Weather on mobile